sensor_id;sensor_type;location;lat;lon;timestamp;temperature;humidity
27779;DHT22;30234;48.090;11.464;2023-07-28T00:03:28;13.30;99.90
27779;DHT22;30234;48.090;11.464;2023-07-28T00:07:29;13.20;99.90
27779;DHT22;30234;48.090;11.464;2023-07-28T00:11:29;13.10;99.90
27779;DHT22;30234;48.090;11.464;2023-07-28T00:15:30;13.10;99.90
27779;DHT22;30234;48.090;11.464;2023-07-28T00:19:31;13.10;99.90
27779;DHT22;30234;48.090;11.464;2023-07-28T00:23:32;13.10;99.90
27779;DHT22;30234;48.090;11.464;2023-07-28T00:27:34;12.90;99.90
27779;DHT22;30234;48.090;11.464;2023-07-28T00:31:35;12.90;99.90
27779;DHT22;30234;48.090;11.464;2023-07-28T00:35:36;12.90;99.90
27779;DHT22;30234;48.090;11.464;2023-07-28T00:39:37;13.00;99.90
27779;DHT22;30234;48.090;11.464;2023-07-28T00:43:39;13.20;99.90
27779;DHT22;30234;48.090;11.464;2023-07-28T00:47:41;13.50;99.90
27779;DHT22;30234;48.090;11.464;2023-07-28T00:51:43;14.00;99.90
27779;DHT22;30234;48.090;11.464;2023-07-28T00:55:43;13.90;99.90
27779;DHT22;30234;48.090;11.464;2023-07-28T00:59:45;14.20;99.90
27779;DHT22;30234;48.090;11.464;2023-07-28T01:03:46;14.30;99.90
27779;DHT22;30234;48.090;11.464;2023-07-28T01:08:00;14.50;99.90
27779;DHT22;30234;48.090;11.464;2023-07-28T01:12:07;14.70;99.90
27779;DHT22;30234;48.090;11.464;2023-07-28T01:16:09;15.00;99.90
27779;DHT22;30234;48.090;11.464;2023-07-28T01:20:11;15.00;99.90
27779;DHT22;30234;48.090;11.464;2023-07-28T01:28:51;15.10;99.90
27779;DHT22;30234;48.090;11.464;2023-07-28T01:32:56;15.10;99.90
27779;DHT22;30234;48.090;11.464;2023-07-28T01:36:57;15.10;99.90
27779;DHT22;30234;48.090;11.464;2023-07-28T01:40:58;15.00;99.90
27779;DHT22;30234;48.090;11.464;2023-07-28T01:44:59;14.90;99.90
27779;DHT22;30234;48.090;11.464;2023-07-28T01:49:00;14.80;99.90
27779;DHT22;30234;48.090;11.464;2023-07-28T01:53:01;14.80;99.90
27779;DHT22;30234;48.090;11.464;2023-07-28T01:57:02;14.80;99.90
27779;DHT22;30234;48.090;11.464;2023-07-28T02:01:03;14.60;99.90
27779;DHT22;30234;48.090;11.464;2023-07-28T02:05:04;14.50;99.90
27779;DHT22;30234;48.090;11.464;2023-07-28T02:09:05;14.50;99.90
27779;DHT22;30234;48.090;11.464;2023-07-28T02:13:06;14.40;99.90
27779;DHT22;30234;48.090;11.464;2023-07-28T02:17:07;14.20;99.90
27779;DHT22;30234;48.090;11.464;2023-07-28T02:21:08;14.10;99.90
27779;DHT22;30234;48.090;11.464;2023-07-28T02:25:09;14.00;99.90
27779;DHT22;30234;48.090;11.464;2023-07-28T02:29:10;14.10;99.90
27779;DHT22;30234;48.090;11.464;2023-07-28T02:33:11;14.00;99.90
27779;DHT22;30234;48.090;11.464;2023-07-28T02:37:15;13.80;99.90
27779;DHT22;30234;48.090;11.464;2023-07-28T02:41:16;13.70;99.90
27779;DHT22;30234;48.090;11.464;2023-07-28T02:45:17;13.80;99.90
27779;DHT22;30234;48.090;11.464;2023-07-28T02:49:19;13.80;99.90
27779;DHT22;30234;48.090;11.464;2023-07-28T02:53:20;13.80;99.90
27779;DHT22;30234;48.090;11.464;2023-07-28T02:57:21;13.80;99.90
27779;DHT22;30234;48.090;11.464;2023-07-28T03:01:21;13.90;99.90
27779;DHT22;30234;48.090;11.464;2023-07-28T03:05:22;14.00;99.90
27779;DHT22;30234;48.090;11.464;2023-07-28T03:09:23;13.90;99.90
27779;DHT22;30234;48.090;11.464;2023-07-28T03:13:24;14.00;99.90
27779;DHT22;30234;48.090;11.464;2023-07-28T03:17:25;14.10;99.90
27779;DHT22;30234;48.090;11.464;2023-07-28T03:21:29;14.30;99.90
27779;DHT22;30234;48.090;11.464;2023-07-28T03:25:31;14.10;99.90
27779;DHT22;30234;48.090;11.464;2023-07-28T03:29:31;14.10;99.90
27779;DHT22;30234;48.090;11.464;2023-07-28T03:33:33;14.00;99.90
27779;DHT22;30234;48.090;11.464;2023-07-28T03:37:34;14.00;99.90
27779;DHT22;30234;48.090;11.464;2023-07-28T03:41:35;13.90;99.90
27779;DHT22;30234;48.090;11.464;2023-07-28T03:45:36;14.30;99.90
27779;DHT22;30234;48.090;11.464;2023-07-28T03:49:37;14.60;99.90
27779;DHT22;30234;48.090;11.464;2023-07-28T03:53:38;14.60;99.90
27779;DHT22;30234;48.090;11.464;2023-07-28T03:57:39;14.80;99.90
27779;DHT22;30234;48.090;11.464;2023-07-28T04:01:40;14.70;99.90
27779;DHT22;30234;48.090;11.464;2023-07-28T04:05:41;14.60;99.90
27779;DHT22;30234;48.090;11.464;2023-07-28T04:09:42;14.80;99.90
27779;DHT22;30234;48.090;11.464;2023-07-28T04:13:43;14.90;99.90
27779;DHT22;30234;48.090;11.464;2023-07-28T04:17:44;15.10;99.90
27779;DHT22;30234;48.090;11.464;2023-07-28T04:21:45;15.70;99.90
27779;DHT22;30234;48.090;11.464;2023-07-28T04:25:46;16.10;99.90
27779;DHT22;30234;48.090;11.464;2023-07-28T04:29:47;16.30;99.90
27779;DHT22;30234;48.090;11.464;2023-07-28T04:33:48;16.50;99.90
27779;DHT22;30234;48.090;11.464;2023-07-28T04:37:48;16.50;99.90
27779;DHT22;30234;48.090;11.464;2023-07-28T04:41:49;16.20;99.90
27779;DHT22;30234;48.090;11.464;2023-07-28T04:45:50;16.10;99.90
27779;DHT22;30234;48.090;11.464;2023-07-28T04:49:51;16.40;99.90
27779;DHT22;30234;48.090;11.464;2023-07-28T04:53:53;17.10;99.90
27779;DHT22;30234;48.090;11.464;2023-07-28T04:57:55;18.30;99.90
27779;DHT22;30234;48.090;11.464;2023-07-28T05:01:56;18.00;99.90
27779;DHT22;30234;48.090;11.464;2023-07-28T05:05:57;17.60;99.90
27779;DHT22;30234;48.090;11.464;2023-07-28T05:09:58;17.50;99.90
27779;DHT22;30234;48.090;11.464;2023-07-28T05:13:59;17.30;99.90
27779;DHT22;30234;48.090;11.464;2023-07-28T05:18:00;17.30;99.90
27779;DHT22;30234;48.090;11.464;2023-07-28T05:22:01;17.30;99.90
27779;DHT22;30234;48.090;11.464;2023-07-28T05:26:02;17.50;99.90
27779;DHT22;30234;48.090;11.464;2023-07-28T05:30:03;17.60;99.90
27779;DHT22;30234;48.090;11.464;2023-07-28T05:34:04;17.70;99.90
27779;DHT22;30234;48.090;11.464;2023-07-28T05:38:05;18.10;99.90
27779;DHT22;30234;48.090;11.464;2023-07-28T05:42:06;18.40;99.90
27779;DHT22;30234;48.090;11.464;2023-07-28T05:46:07;18.40;99.90
27779;DHT22;30234;48.090;11.464;2023-07-28T05:50:08;18.00;99.90
27779;DHT22;30234;48.090;11.464;2023-07-28T05:54:09;18.30;99.90
27779;DHT22;30234;48.090;11.464;2023-07-28T05:58:13;20.40;99.90
27779;DHT22;30234;48.090;11.464;2023-07-28T06:02:14;20.20;99.90
27779;DHT22;30234;48.090;11.464;2023-07-28T06:06:15;19.80;99.90
27779;DHT22;30234;48.090;11.464;2023-07-28T06:10:15;19.70;99.90
27779;DHT22;30234;48.090;11.464;2023-07-28T06:14:16;21.00;99.90
27779;DHT22;30234;48.090;11.464;2023-07-28T06:18:17;22.30;99.90
27779;DHT22;30234;48.090;11.464;2023-07-28T06:22:18;22.10;99.90
27779;DHT22;30234;48.090;11.464;2023-07-28T06:26:19;24.70;99.90
27779;DHT22;30234;48.090;11.464;2023-07-28T06:30:20;26.10;99.90
27779;DHT22;30234;48.090;11.464;2023-07-28T06:34:21;24.60;99.90
27779;DHT22;30234;48.090;11.464;2023-07-28T06:38:22;23.40;99.90
27779;DHT22;30234;48.090;11.464;2023-07-28T06:42:23;23.80;99.90
27779;DHT22;30234;48.090;11.464;2023-07-28T06:46:24;24.40;99.90
27779;DHT22;30234;48.090;11.464;2023-07-28T06:50:25;24.40;99.90
27779;DHT22;30234;48.090;11.464;2023-07-28T06:54:26;24.30;99.90
27779;DHT22;30234;48.090;11.464;2023-07-28T06:58:27;24.70;99.90
27779;DHT22;30234;48.090;11.464;2023-07-28T07:02:28;23.10;99.90
27779;DHT22;30234;48.090;11.464;2023-07-28T07:06:29;23.60;99.90
27779;DHT22;30234;48.090;11.464;2023-07-28T07:10:30;26.00;99.90
27779;DHT22;30234;48.090;11.464;2023-07-28T07:14:31;28.20;99.90
27779;DHT22;30234;48.090;11.464;2023-07-28T07:18:32;31.10;94.40
27779;DHT22;30234;48.090;11.464;2023-07-28T07:22:33;28.10;93.50
27779;DHT22;30234;48.090;11.464;2023-07-28T07:26:34;26.50;95.60
27779;DHT22;30234;48.090;11.464;2023-07-28T07:30:34;27.50;95.00
27779;DHT22;30234;48.090;11.464;2023-07-28T07:34:35;26.60;95.10
27779;DHT22;30234;48.090;11.464;2023-07-28T07:38:38;28.00;94.70
27779;DHT22;30234;48.090;11.464;2023-07-28T07:42:48;30.40;91.10
27779;DHT22;30234;48.090;11.464;2023-07-28T07:46:50;32.20;84.50
27779;DHT22;30234;48.090;11.464;2023-07-28T07:50:51;29.60;85.10
27779;DHT22;30234;48.090;11.464;2023-07-28T07:54:52;28.60;89.50
27779;DHT22;30234;48.090;11.464;2023-07-28T07:58:53;29.20;88.40
27779;DHT22;30234;48.090;11.464;2023-07-28T08:02:55;28.50;89.30
27779;DHT22;30234;48.090;11.464;2023-07-28T08:06:56;28.30;90.20
27779;DHT22;30234;48.090;11.464;2023-07-28T08:10:57;28.60;89.50
27779;DHT22;30234;48.090;11.464;2023-07-28T08:14:58;27.30;91.40
27779;DHT22;30234;48.090;11.464;2023-07-28T08:18:59;27.70;91.40
27779;DHT22;30234;48.090;11.464;2023-07-28T08:23:00;28.20;90.50
27779;DHT22;30234;48.090;11.464;2023-07-28T08:27:01;28.10;91.10
27779;DHT22;30234;48.090;11.464;2023-07-28T08:31:02;28.30;90.80
27779;DHT22;30234;48.090;11.464;2023-07-28T08:35:05;28.80;90.20
27779;DHT22;30234;48.090;11.464;2023-07-28T08:39:06;28.50;90.40
27779;DHT22;30234;48.090;11.464;2023-07-28T08:43:07;29.50;88.50
27779;DHT22;30234;48.090;11.464;2023-07-28T08:47:07;30.50;85.70
27779;DHT22;30234;48.090;11.464;2023-07-28T08:51:09;29.60;85.70
27779;DHT22;30234;48.090;11.464;2023-07-28T08:55:12;29.70;84.80
27779;DHT22;30234;48.090;11.464;2023-07-28T08:59:21;28.70;84.40
27779;DHT22;30234;48.090;11.464;2023-07-28T09:03:27;27.80;88.60
27779;DHT22;30234;48.090;11.464;2023-07-28T09:07:36;27.90;88.70
27779;DHT22;30234;48.090;11.464;2023-07-28T09:11:45;27.30;88.00
27779;DHT22;30234;48.090;11.464;2023-07-28T09:15:50;26.00;90.40
27779;DHT22;30234;48.090;11.464;2023-07-28T09:19:56;25.90;91.30
27779;DHT22;30234;48.090;11.464;2023-07-28T09:23:59;25.80;91.20
27779;DHT22;30234;48.090;11.464;2023-07-28T09:28:03;25.90;91.50
27779;DHT22;30234;48.090;11.464;2023-07-28T09:32:06;25.90;91.70
27779;DHT22;30234;48.090;11.464;2023-07-28T09:36:09;25.50;92.40
27779;DHT22;30234;48.090;11.464;2023-07-28T09:40:13;25.40;92.70
27779;DHT22;30234;48.090;11.464;2023-07-28T09:44:16;25.20;92.80
27779;DHT22;30234;48.090;11.464;2023-07-28T09:48:18;25.10;93.30
27779;DHT22;30234;48.090;11.464;2023-07-28T09:52:21;25.20;93.30
27779;DHT22;30234;48.090;11.464;2023-07-28T09:56:27;26.00;92.50
27779;DHT22;30234;48.090;11.464;2023-07-28T10:00:32;26.30;91.80
27779;DHT22;30234;48.090;11.464;2023-07-28T10:04:34;26.40;91.60
27779;DHT22;30234;48.090;11.464;2023-07-28T10:08:36;26.70;91.40
27779;DHT22;30234;48.090;11.464;2023-07-28T10:12:52;27.50;89.90
27779;DHT22;30234;48.090;11.464;2023-07-28T10:16:59;27.00;90.50
27779;DHT22;30234;48.090;11.464;2023-07-28T10:21:06;27.60;90.00
27779;DHT22;30234;48.090;11.464;2023-07-28T10:25:09;27.20;89.10
27779;DHT22;30234;48.090;11.464;2023-07-28T10:29:14;27.60;89.90
27779;DHT22;30234;48.090;11.464;2023-07-28T10:33:35;26.90;90.40
27779;DHT22;30234;48.090;11.464;2023-07-28T10:37:46;26.20;90.70
27779;DHT22;30234;48.090;11.464;2023-07-28T10:42:06;25.50;91.70
27779;DHT22;30234;48.090;11.464;2023-07-28T10:46:13;25.40;91.20
27779;DHT22;30234;48.090;11.464;2023-07-28T10:50:16;25.50;91.50
27779;DHT22;30234;48.090;11.464;2023-07-28T10:54:17;25.60;91.60
27779;DHT22;30234;48.090;11.464;2023-07-28T10:58:20;26.00;91.20
27779;DHT22;30234;48.090;11.464;2023-07-28T11:02:21;26.10;91.00
27779;DHT22;30234;48.090;11.464;2023-07-28T11:06:22;25.90;91.30
27779;DHT22;30234;48.090;11.464;2023-07-28T11:10:23;25.50;91.90
27779;DHT22;30234;48.090;11.464;2023-07-28T11:14:25;26.20;90.70
27779;DHT22;30234;48.090;11.464;2023-07-28T11:18:26;26.50;90.60
27779;DHT22;30234;48.090;11.464;2023-07-28T11:22:27;25.90;90.70
27779;DHT22;30234;48.090;11.464;2023-07-28T11:26:28;26.00;90.90
27779;DHT22;30234;48.090;11.464;2023-07-28T11:30:31;26.10;90.60
27779;DHT22;30234;48.090;11.464;2023-07-28T11:34:38;26.70;90.10
27779;DHT22;30234;48.090;11.464;2023-07-28T11:38:41;26.90;89.90
27779;DHT22;30234;48.090;11.464;2023-07-28T11:42:51;27.70;86.60
27779;DHT22;30234;48.090;11.464;2023-07-28T11:46:53;27.80;86.80
27779;DHT22;30234;48.090;11.464;2023-07-28T11:50:55;27.80;85.80
27779;DHT22;30234;48.090;11.464;2023-07-28T11:54:57;27.60;86.00
27779;DHT22;30234;48.090;11.464;2023-07-28T11:58:59;27.60;83.80
27779;DHT22;30234;48.090;11.464;2023-07-28T12:03:01;28.60;83.20
27779;DHT22;30234;48.090;11.464;2023-07-28T12:07:07;28.50;82.20
27779;DHT22;30234;48.090;11.464;2023-07-28T12:11:14;28.70;83.40
27779;DHT22;30234;48.090;11.464;2023-07-28T12:15:26;29.30;80.60
27779;DHT22;30234;48.090;11.464;2023-07-28T12:19:28;29.20;79.40
27779;DHT22;30234;48.090;11.464;2023-07-28T12:23:29;29.00;79.30
27779;DHT22;30234;48.090;11.464;2023-07-28T12:27:30;29.10;80.80
27779;DHT22;30234;48.090;11.464;2023-07-28T12:31:31;29.10;80.60
27779;DHT22;30234;48.090;11.464;2023-07-28T12:35:34;29.00;78.50
27779;DHT22;30234;48.090;11.464;2023-07-28T12:39:37;29.40;78.30
27779;DHT22;30234;48.090;11.464;2023-07-28T12:43:41;29.90;77.40
27779;DHT22;30234;48.090;11.464;2023-07-28T12:47:42;29.80;77.30
27779;DHT22;30234;48.090;11.464;2023-07-28T12:51:43;30.00;75.70
27779;DHT22;30234;48.090;11.464;2023-07-28T12:55:44;30.10;74.90
27779;DHT22;30234;48.090;11.464;2023-07-28T12:59:45;29.20;76.50
27779;DHT22;30234;48.090;11.464;2023-07-28T13:03:46;29.20;78.50
27779;DHT22;30234;48.090;11.464;2023-07-28T13:07:47;29.20;77.90
27779;DHT22;30234;48.090;11.464;2023-07-28T13:11:48;28.50;77.80
27779;DHT22;30234;48.090;11.464;2023-07-28T13:15:49;28.50;78.10
27779;DHT22;30234;48.090;11.464;2023-07-28T13:19:50;28.10;78.50
27779;DHT22;30234;48.090;11.464;2023-07-28T13:23:51;28.10;78.20
27779;DHT22;30234;48.090;11.464;2023-07-28T13:27:51;28.00;78.00
27779;DHT22;30234;48.090;11.464;2023-07-28T13:31:58;27.70;79.40
27779;DHT22;30234;48.090;11.464;2023-07-28T13:36:02;27.40;79.70
27779;DHT22;30234;48.090;11.464;2023-07-28T13:40:07;27.10;80.70
27779;DHT22;30234;48.090;11.464;2023-07-28T13:44:08;26.80;80.10
27779;DHT22;30234;48.090;11.464;2023-07-28T13:48:09;26.30;81.60
27779;DHT22;30234;48.090;11.464;2023-07-28T13:52:10;26.10;83.20
27779;DHT22;30234;48.090;11.464;2023-07-28T13:56:11;26.10;82.70
27779;DHT22;30234;48.090;11.464;2023-07-28T14:00:12;25.60;84.60
27779;DHT22;30234;48.090;11.464;2023-07-28T14:04:13;25.30;85.10
27779;DHT22;30234;48.090;11.464;2023-07-28T14:08:14;24.80;89.20
27779;DHT22;30234;48.090;11.464;2023-07-28T14:12:15;24.00;92.00
27779;DHT22;30234;48.090;11.464;2023-07-28T14:16:16;23.20;94.60
27779;DHT22;30234;48.090;11.464;2023-07-28T14:20:17;22.50;99.90
27779;DHT22;30234;48.090;11.464;2023-07-28T14:24:18;22.20;99.90
27779;DHT22;30234;48.090;11.464;2023-07-28T14:28:21;22.30;99.90
27779;DHT22;30234;48.090;11.464;2023-07-28T14:32:22;22.50;99.90
27779;DHT22;30234;48.090;11.464;2023-07-28T14:36:23;22.80;99.90
27779;DHT22;30234;48.090;11.464;2023-07-28T14:40:24;24.00;99.90
27779;DHT22;30234;48.090;11.464;2023-07-28T14:44:25;24.00;99.90
27779;DHT22;30234;48.090;11.464;2023-07-28T14:48:26;24.80;99.90
27779;DHT22;30234;48.090;11.464;2023-07-28T14:52:27;25.10;99.20
27779;DHT22;30234;48.090;11.464;2023-07-28T14:56:28;25.30;98.90
27779;DHT22;30234;48.090;11.464;2023-07-28T15:00:29;25.70;98.10
27779;DHT22;30234;48.090;11.464;2023-07-28T15:04:30;26.20;97.70
27779;DHT22;30234;48.090;11.464;2023-07-28T15:08:31;26.60;96.80
27779;DHT22;30234;48.090;11.464;2023-07-28T15:12:32;26.90;95.30
27779;DHT22;30234;48.090;11.464;2023-07-28T15:16:33;27.30;94.70
27779;DHT22;30234;48.090;11.464;2023-07-28T15:20:35;28.10;94.10
27779;DHT22;30234;48.090;11.464;2023-07-28T15:24:37;29.30;92.30
27779;DHT22;30234;48.090;11.464;2023-07-28T15:28:38;31.00;89.80
27779;DHT22;30234;48.090;11.464;2023-07-28T15:32:39;30.40;87.90
27779;DHT22;30234;48.090;11.464;2023-07-28T15:36:40;30.90;86.10
27779;DHT22;30234;48.090;11.464;2023-07-28T15:40:41;31.70;83.00
27779;DHT22;30234;48.090;11.464;2023-07-28T15:44:42;32.00;79.30
27779;DHT22;30234;48.090;11.464;2023-07-28T15:48:43;31.10;80.60
27779;DHT22;30234;48.090;11.464;2023-07-28T15:52:47;30.20;82.90
27779;DHT22;30234;48.090;11.464;2023-07-28T15:56:48;28.50;87.10
27779;DHT22;30234;48.090;11.464;2023-07-28T16:00:49;28.30;90.20
27779;DHT22;30234;48.090;11.464;2023-07-28T16:04:50;27.30;91.40
27779;DHT22;30234;48.090;11.464;2023-07-28T16:08:51;26.50;93.30
27779;DHT22;30234;48.090;11.464;2023-07-28T16:12:52;26.70;93.90
27779;DHT22;30234;48.090;11.464;2023-07-28T16:16:54;27.30;92.90
27779;DHT22;30234;48.090;11.464;2023-07-28T16:20:55;27.40;92.70
27779;DHT22;30234;48.090;11.464;2023-07-28T16:24:55;26.90;93.10
27779;DHT22;30234;48.090;11.464;2023-07-28T16:28:56;26.90;94.20
27779;DHT22;30234;48.090;11.464;2023-07-28T16:32:57;26.80;94.50
27779;DHT22;30234;48.090;11.464;2023-07-28T16:36:58;27.00;94.30
27779;DHT22;30234;48.090;11.464;2023-07-28T16:40:59;27.30;93.80
27779;DHT22;30234;48.090;11.464;2023-07-28T16:45:00;26.70;94.50
27779;DHT22;30234;48.090;11.464;2023-07-28T16:49:01;26.60;94.60
27779;DHT22;30234;48.090;11.464;2023-07-28T16:53:02;25.50;96.20
27779;DHT22;30234;48.090;11.464;2023-07-28T16:57:03;24.80;97.10
27779;DHT22;30234;48.090;11.464;2023-07-28T17:01:04;24.10;98.50
27779;DHT22;30234;48.090;11.464;2023-07-28T17:05:05;23.50;99.90
27779;DHT22;30234;48.090;11.464;2023-07-28T17:09:06;23.20;99.90
27779;DHT22;30234;48.090;11.464;2023-07-28T17:13:07;23.00;99.90
27779;DHT22;30234;48.090;11.464;2023-07-28T17:17:08;22.90;99.90
27779;DHT22;30234;48.090;11.464;2023-07-28T17:21:09;22.80;99.90
27779;DHT22;30234;48.090;11.464;2023-07-28T17:25:10;22.70;99.90
27779;DHT22;30234;48.090;11.464;2023-07-28T17:29:11;22.50;99.90
27779;DHT22;30234;48.090;11.464;2023-07-28T17:33:12;22.20;99.90
27779;DHT22;30234;48.090;11.464;2023-07-28T17:37:13;22.20;99.90
27779;DHT22;30234;48.090;11.464;2023-07-28T17:41:14;22.00;99.90
27779;DHT22;30234;48.090;11.464;2023-07-28T17:45:15;22.00;99.90
27779;DHT22;30234;48.090;11.464;2023-07-28T17:49:16;21.90;99.90
27779;DHT22;30234;48.090;11.464;2023-07-28T17:53:17;21.70;99.90
27779;DHT22;30234;48.090;11.464;2023-07-28T17:57:17;21.30;99.90
27779;DHT22;30234;48.090;11.464;2023-07-28T18:01:18;20.50;99.90
27779;DHT22;30234;48.090;11.464;2023-07-28T18:05:19;20.00;99.90
27779;DHT22;30234;48.090;11.464;2023-07-28T18:09:20;19.50;99.90
27779;DHT22;30234;48.090;11.464;2023-07-28T18:13:21;19.40;99.90
27779;DHT22;30234;48.090;11.464;2023-07-28T18:17:22;19.30;99.90
27779;DHT22;30234;48.090;11.464;2023-07-28T18:21:23;19.10;99.90
27779;DHT22;30234;48.090;11.464;2023-07-28T18:25:24;18.80;99.90
27779;DHT22;30234;48.090;11.464;2023-07-28T18:29:25;18.70;99.90
27779;DHT22;30234;48.090;11.464;2023-07-28T18:33:26;18.60;99.90
27779;DHT22;30234;48.090;11.464;2023-07-28T18:37:27;18.50;99.90
27779;DHT22;30234;48.090;11.464;2023-07-28T18:41:28;18.30;99.90
27779;DHT22;30234;48.090;11.464;2023-07-28T18:45:29;18.10;99.90
27779;DHT22;30234;48.090;11.464;2023-07-28T18:49:30;18.00;99.90
27779;DHT22;30234;48.090;11.464;2023-07-28T18:53:31;17.90;99.90
27779;DHT22;30234;48.090;11.464;2023-07-28T18:57:33;17.90;99.90
27779;DHT22;30234;48.090;11.464;2023-07-28T19:01:34;18.00;99.90
27779;DHT22;30234;48.090;11.464;2023-07-28T19:05:35;18.10;99.90
27779;DHT22;30234;48.090;11.464;2023-07-28T19:09:36;18.00;99.90
27779;DHT22;30234;48.090;11.464;2023-07-28T19:13:37;18.10;99.90
27779;DHT22;30234;48.090;11.464;2023-07-28T19:17:38;18.10;99.90
27779;DHT22;30234;48.090;11.464;2023-07-28T19:21:39;18.00;99.90
27779;DHT22;30234;48.090;11.464;2023-07-28T19:25:41;18.00;99.90
27779;DHT22;30234;48.090;11.464;2023-07-28T19:29:42;17.90;99.90
27779;DHT22;30234;48.090;11.464;2023-07-28T19:33:43;17.90;99.90
27779;DHT22;30234;48.090;11.464;2023-07-28T19:37:44;17.90;99.90
27779;DHT22;30234;48.090;11.464;2023-07-28T19:41:45;17.90;99.90
27779;DHT22;30234;48.090;11.464;2023-07-28T19:45:46;18.00;99.90
27779;DHT22;30234;48.090;11.464;2023-07-28T19:49:47;18.00;99.90
27779;DHT22;30234;48.090;11.464;2023-07-28T19:53:49;17.90;99.90
27779;DHT22;30234;48.090;11.464;2023-07-28T19:57:52;17.90;99.90
27779;DHT22;30234;48.090;11.464;2023-07-28T20:01:53;17.80;99.90
27779;DHT22;30234;48.090;11.464;2023-07-28T20:05:54;17.70;99.90
27779;DHT22;30234;48.090;11.464;2023-07-28T20:09:55;17.70;99.90
27779;DHT22;30234;48.090;11.464;2023-07-28T20:13:56;17.60;99.90
27779;DHT22;30234;48.090;11.464;2023-07-28T20:17:57;17.60;99.90
27779;DHT22;30234;48.090;11.464;2023-07-28T20:21:58;17.70;99.90
27779;DHT22;30234;48.090;11.464;2023-07-28T20:25:59;17.50;99.90
27779;DHT22;30234;48.090;11.464;2023-07-28T20:30:00;17.40;99.90
27779;DHT22;30234;48.090;11.464;2023-07-28T20:34:01;17.40;99.90
27779;DHT22;30234;48.090;11.464;2023-07-28T20:38:02;17.30;99.90
27779;DHT22;30234;48.090;11.464;2023-07-28T20:42:03;17.20;99.90
27779;DHT22;30234;48.090;11.464;2023-07-28T20:46:04;17.30;99.90
27779;DHT22;30234;48.090;11.464;2023-07-28T20:50:07;17.30;99.90
27779;DHT22;30234;48.090;11.464;2023-07-28T20:54:08;17.30;99.90
27779;DHT22;30234;48.090;11.464;2023-07-28T20:58:09;17.30;99.90
27779;DHT22;30234;48.090;11.464;2023-07-28T21:02:10;17.80;99.90
27779;DHT22;30234;48.090;11.464;2023-07-28T21:06:11;17.20;99.90
27779;DHT22;30234;48.090;11.464;2023-07-28T21:10:16;17.10;99.90
27779;DHT22;30234;48.090;11.464;2023-07-28T21:14:16;17.30;99.90
27779;DHT22;30234;48.090;11.464;2023-07-28T21:18:17;17.40;99.90
27779;DHT22;30234;48.090;11.464;2023-07-28T21:22:21;17.20;99.90
27779;DHT22;30234;48.090;11.464;2023-07-28T21:26:21;17.10;99.90
27779;DHT22;30234;48.090;11.464;2023-07-28T21:30:22;17.10;99.90
27779;DHT22;30234;48.090;11.464;2023-07-28T21:34:23;17.10;99.90
27779;DHT22;30234;48.090;11.464;2023-07-28T21:38:24;17.00;99.90
27779;DHT22;30234;48.090;11.464;2023-07-28T21:42:25;17.30;99.90
27779;DHT22;30234;48.090;11.464;2023-07-28T21:46:27;16.90;99.90
27779;DHT22;30234;48.090;11.464;2023-07-28T21:50:28;16.90;99.90
27779;DHT22;30234;48.090;11.464;2023-07-28T21:54:29;16.80;99.90
27779;DHT22;30234;48.090;11.464;2023-07-28T21:58:30;16.90;99.90
27779;DHT22;30234;48.090;11.464;2023-07-28T22:02:32;16.80;99.90
27779;DHT22;30234;48.090;11.464;2023-07-28T22:06:33;16.90;99.90
27779;DHT22;30234;48.090;11.464;2023-07-28T22:10:33;16.70;99.90
27779;DHT22;30234;48.090;11.464;2023-07-28T22:14:34;16.60;99.90
27779;DHT22;30234;48.090;11.464;2023-07-28T22:18:35;16.60;99.90
27779;DHT22;30234;48.090;11.464;2023-07-28T22:22:36;16.50;99.90
27779;DHT22;30234;48.090;11.464;2023-07-28T22:26:37;16.50;99.90
27779;DHT22;30234;48.090;11.464;2023-07-28T22:30:38;16.40;99.90
27779;DHT22;30234;48.090;11.464;2023-07-28T22:34:39;16.20;99.90
27779;DHT22;30234;48.090;11.464;2023-07-28T22:38:40;16.20;99.90
27779;DHT22;30234;48.090;11.464;2023-07-28T22:42:41;16.20;99.90
27779;DHT22;30234;48.090;11.464;2023-07-28T22:46:42;16.00;99.90
27779;DHT22;30234;48.090;11.464;2023-07-28T22:50:43;15.80;99.90
27779;DHT22;30234;48.090;11.464;2023-07-28T22:54:44;15.80;99.90
27779;DHT22;30234;48.090;11.464;2023-07-28T22:58:45;15.90;99.90
27779;DHT22;30234;48.090;11.464;2023-07-28T23:02:47;16.00;99.90
27779;DHT22;30234;48.090;11.464;2023-07-28T23:06:48;15.80;99.90
27779;DHT22;30234;48.090;11.464;2023-07-28T23:10:49;15.70;99.90
27779;DHT22;30234;48.090;11.464;2023-07-28T23:14:50;15.60;99.90
27779;DHT22;30234;48.090;11.464;2023-07-28T23:18:51;15.70;99.90
27779;DHT22;30234;48.090;11.464;2023-07-28T23:22:52;15.60;99.90
27779;DHT22;30234;48.090;11.464;2023-07-28T23:26:53;15.80;99.90
27779;DHT22;30234;48.090;11.464;2023-07-28T23:31:16;15.70;99.90
27779;DHT22;30234;48.090;11.464;2023-07-28T23:35:17;15.70;99.90
27779;DHT22;30234;48.090;11.464;2023-07-28T23:39:19;15.70;99.90
27779;DHT22;30234;48.090;11.464;2023-07-28T23:43:21;15.80;99.90
27779;DHT22;30234;48.090;11.464;2023-07-28T23:47:22;15.90;99.90
27779;DHT22;30234;48.090;11.464;2023-07-28T23:51:22;15.90;99.90
27779;DHT22;30234;48.090;11.464;2023-07-28T23:55:23;15.90;99.90
27779;DHT22;30234;48.090;11.464;2023-07-28T23:59:24;15.80;99.90
